Time;durP1;ratioP1;P1;durP2;ratioP2;P2;SDS_P1;SDS_P2;PMS_P1;PMS_P2;Temp;Humidity;BMP_temperature;BMP_pressure;BME280_temperature;BME280_humidity;BME280_pressure;Samples;Min_cycle;Max_cycle;Signal;HPM_P1;HPM_P2
2023/06/14 00:00:11;;;;;;;7.22;3.92;;;;;;;13.16;100.00;101513.19;5010969;28;20406;-77
2023/06/14 00:02:39;;;;;;;14.40;5.22;;;;;;;13.14;100.00;101517.03;5022432;28;20029;-76
2023/06/14 00:05:06;;;;;;;7.93;4.53;;;;;;;13.13;100.00;101521.53;4991959;28;20425;-76
2023/06/14 00:07:36;;;;;;;8.90;4.28;;;;;;;13.18;100.00;101515.69;5023515;28;20041;-76
2023/06/14 00:10:04;;;;;;;9.30;4.65;;;;;;;13.12;100.00;101522.56;5027515;28;20270;-76
2023/06/14 00:12:30;;;;;;;7.00;4.55;;;;;;;13.09;100.00;101515.69;5018896;28;20091;-77
2023/06/14 00:14:55;;;;;;;8.13;4.35;;;;;;;13.06;100.00;101520.50;5005971;28;20041;-77
2023/06/14 00:17:21;;;;;;;16.37;5.20;;;;;;;13.08;100.00;101519.34;5005536;28;20183;-77
2023/06/14 00:19:47;;;;;;;11.27;4.68;;;;;;;13.08;100.00;101518.50;5019635;28;20494;-76
2023/06/14 00:22:12;;;;;;;11.80;4.80;;;;;;;13.07;100.00;101524.88;5015736;28;20112;-76
2023/06/14 00:24:37;;;;;;;10.43;4.23;;;;;;;13.00;100.00;101521.16;5020290;28;20071;-76
2023/06/14 00:27:03;;;;;;;9.07;5.37;;;;;;;13.01;100.00;101528.19;5012080;28;20033;-76
2023/06/14 00:29:28;;;;;;;8.55;4.13;;;;;;;12.98;100.00;101529.34;4993679;28;20116;-76
2023/06/14 00:31:54;;;;;;;14.80;5.13;;;;;;;12.97;100.00;101533.03;5020869;28;20491;-77
2023/06/14 00:34:19;;;;;;;10.70;5.30;;;;;;;12.96;100.00;101525.97;5011970;28;20140;-77
2023/06/14 00:36:44;;;;;;;10.93;5.03;;;;;;;12.94;100.00;101527.16;5012286;28;20512;-74
2023/06/14 00:39:12;;;;;;;16.33;5.53;;;;;;;12.91;100.00;101528.31;4996691;28;20029;-75
2023/06/14 00:41:37;;;;;;;11.00;4.67;;;;;;;12.91;100.00;101533.66;5011534;28;20435;-75
2023/06/14 00:44:04;;;;;;;9.85;4.43;;;;;;;12.92;100.00;101532.66;5030749;28;20024;-74
2023/06/14 00:46:30;;;;;;;11.60;4.70;;;;;;;12.89;100.00;101531.13;5002008;28;20028;-74
2023/06/14 00:48:56;;;;;;;10.47;3.83;;;;;;;12.86;100.00;101525.28;5031466;28;20025;-74
2023/06/14 00:51:22;;;;;;;13.43;5.30;;;;;;;12.91;100.00;101538.19;5019378;28;20079;-74
2023/06/14 00:53:47;;;;;;;13.45;5.18;;;;;;;12.90;100.00;101550.75;5014205;28;20399;-75
2023/06/14 00:56:14;;;;;;;10.32;5.10;;;;;;;12.83;100.00;101538.97;5014152;28;20071;-74
2023/06/14 00:58:41;;;;;;;12.73;5.80;;;;;;;12.82;100.00;101548.84;5011605;28;20487;-74
2023/06/14 01:01:07;;;;;;;10.85;5.13;;;;;;;12.82;100.00;101556.88;5029374;28;20087;-74
2023/06/14 01:03:33;;;;;;;13.13;6.45;;;;;;;12.80;100.00;101550.00;5004588;28;20052;-74
2023/06/14 01:06:11;;;;;;;16.53;5.77;;;;;;;12.81;100.00;101559.75;5010311;28;20567;-74
2023/06/14 01:08:51;;;;;;;10.77;5.45;;;;;;;12.77;100.00;101563.72;4999818;28;20022;-74
2023/06/14 01:11:27;;;;;;;12.07;5.50;;;;;;;12.75;100.00;101555.00;5004963;28;20060;-75
2023/06/14 01:13:53;;;;;;;7.75;4.72;;;;;;;12.71;100.00;101548.28;5021613;28;20086;-74
2023/06/14 01:16:21;;;;;;;14.48;6.10;;;;;;;12.65;100.00;101550.59;4993044;28;20040;-74
2023/06/14 01:18:49;;;;;;;14.25;4.88;;;;;;;12.66;100.00;101552.25;5011067;28;20033;-75
2023/06/14 01:21:24;;;;;;;16.13;6.88;;;;;;;12.62;100.00;101553.59;5041625;28;20666;-74
2023/06/14 01:23:54;;;;;;;14.18;6.32;;;;;;;12.65;100.00;101563.97;5030736;28;20035;-74
2023/06/14 01:26:22;;;;;;;12.35;7.30;;;;;;;12.65;100.00;101568.50;5048932;28;20027;-75
2023/06/14 01:28:50;;;;;;;13.18;5.97;;;;;;;12.62;100.00;101561.63;5048724;28;20504;-74
2023/06/14 01:31:19;;;;;;;15.93;5.88;;;;;;;12.60;100.00;101560.94;5003853;28;20033;-75
2023/06/14 01:33:45;;;;;;;10.02;5.82;;;;;;;12.61;100.00;101565.28;5011022;28;20036;-74
2023/06/14 01:36:12;;;;;;;;;;;;;;;12.62;100.00;101561.63;5015436;28;20028;-74
2023/06/14 01:38:39;;;;;;;12.00;5.90;;;;;;;12.60;100.00;101562.78;4997541;28;19917;-75
2023/06/14 01:41:05;;;;;;;8.52;5.82;;;;;;;12.57;100.00;101566.59;5022416;28;20535;-74
2023/06/14 01:43:31;;;;;;;9.85;5.72;;;;;;;12.60;100.00;101571.66;5030720;28;20101;-74
2023/06/14 01:45:58;;;;;;;;;;;;;;;12.58;100.00;101559.41;5028695;28;20026;-74
2023/06/14 01:48:26;;;;;;;12.50;6.05;;;;;;;12.54;100.00;101564.22;5014971;28;19936;-74
2023/06/14 01:50:52;;;;;;;11.23;5.77;;;;;;;12.54;100.00;101569.56;5028529;28;20507;-74
2023/06/14 01:53:19;;;;;;;14.63;6.47;;;;;;;12.51;100.00;101566.38;5027127;28;20578;-74
2023/06/14 01:55:48;;;;;;;11.73;5.93;;;;;;;12.52;100.00;101566.22;5007659;28;20119;-75
2023/06/14 01:58:16;;;;;;;17.05;5.82;;;;;;;12.45;100.00;101567.81;5020465;28;20854;-74
2023/06/14 02:00:43;;;;;;;11.77;6.38;;;;;;;12.44;100.00;101572.34;4994427;28;20064;-75
2023/06/14 02:03:09;;;;;;;12.20;6.13;;;;;;;12.44;100.00;101569.66;4992133;28;20018;-75
2023/06/14 02:05:34;;;;;;;13.07;6.97;;;;;;;12.44;100.00;101568.84;5010481;28;20371;-74
2023/06/14 02:08:00;;;;;;;15.37;6.73;;;;;;;12.42;100.00;101573.50;4994217;28;20108;-74
2023/06/14 02:10:26;;;;;;;14.93;6.35;;;;;;;12.46;100.00;101569.53;4991251;28;20124;-75
2023/06/14 02:12:54;;;;;;;11.85;6.03;;;;;;;12.41;100.00;101567.31;5010535;28;20025;-75
2023/06/14 02:15:21;;;;;;;13.45;5.82;;;;;;;12.40;100.00;101578.16;5009264;28;20136;-74
2023/06/14 02:17:47;;;;;;;15.35;6.50;;;;;;;12.40;100.00;101562.09;5009938;28;20542;-74
2023/06/14 02:20:13;;;;;;;11.73;5.80;;;;;;;12.35;100.00;101553.69;5017359;28;20131;-75
2023/06/14 02:22:39;;;;;;;14.63;6.00;;;;;;;12.35;100.00;101559.03;5034346;28;20147;-74
2023/06/14 02:25:07;;;;;;;15.02;7.43;;;;;;;12.31;100.00;101552.31;5022998;28;20026;-74
2023/06/14 02:27:33;;;;;;;13.20;6.70;;;;;;;12.31;100.00;101563.84;5014847;28;20028;-74
2023/06/14 02:29:59;;;;;;;16.77;6.82;;;;;;;12.30;100.00;101570.22;5014345;28;20069;-74
2023/06/14 02:32:26;;;;;;;;;;;;;;;12.29;100.00;101563.19;5032281;28;20108;-74
2023/06/14 02:34:53;;;;;;;13.65;6.70;;;;;;;12.28;100.00;101558.81;5041410;28;20399;-74
2023/06/14 02:37:18;;;;;;;9.95;6.20;;;;;;;12.22;100.00;101562.09;5031495;28;20035;-75
2023/06/14 02:39:45;;;;;;;17.95;7.53;;;;;;;12.23;100.00;101561.94;5032016;28;20460;-74
2023/06/14 02:42:10;;;;;;;13.40;6.87;;;;;;;12.24;100.00;101563.66;5014303;28;20025;-74
2023/06/14 02:44:36;;;;;;;14.83;6.60;;;;;;;12.22;100.00;101562.09;5014138;28;20025;-74
2023/06/14 02:47:04;;;;;;;17.58;6.93;;;;;;;12.20;100.00;101564.94;5013960;28;20117;-74
2023/06/14 02:49:30;;;;;;;22.10;8.02;;;;;;;12.19;100.00;101565.94;5000282;28;20045;-74
2023/06/14 02:51:55;;;;;;;21.67;7.55;;;;;;;12.23;100.00;101570.00;4997871;28;20056;-74
2023/06/14 02:54:21;;;;;;;15.67;5.90;;;;;;;12.20;100.00;101562.28;5013930;28;20068;-74
2023/06/14 02:56:46;;;;;;;13.27;6.47;;;;;;;12.19;100.00;101565.09;5031807;28;20762;-74
2023/06/14 02:59:13;;;;;;;17.67;6.63;;;;;;;12.19;100.00;101568.59;5014009;28;20395;-74
2023/06/14 03:01:40;;;;;;;13.50;6.22;;;;;;;12.23;100.00;101566.47;4994400;28;20084;-74
2023/06/14 03:04:08;;;;;;;14.45;7.13;;;;;;;12.24;100.00;101562.78;5016665;28;20032;-74
2023/06/14 03:06:36;;;;;;;11.90;6.50;;;;;;;12.22;100.00;101564.78;5009239;28;20112;-74
2023/06/14 03:09:06;;;;;;;15.82;7.00;;;;;;;12.19;100.00;101570.44;5016675;28;20028;-74
2023/06/14 03:11:34;;;;;;;11.73;7.05;;;;;;;12.24;100.00;101574.38;5008989;28;20021;-74
2023/06/14 03:14:00;;;;;;;14.18;6.25;;;;;;;12.31;100.00;101576.41;4996479;28;20563;-74
2023/06/14 03:16:29;;;;;;;12.02;6.65;;;;;;;12.30;100.00;101582.78;5013971;28;20087;-74
2023/06/14 03:18:55;;;;;;;14.10;7.60;;;;;;;12.32;100.00;101583.47;5011835;28;20057;-74
2023/06/14 03:21:23;;;;;;;17.98;7.82;;;;;;;12.33;100.00;101577.94;4993904;28;20064;-74
2023/06/14 03:23:50;;;;;;;18.63;6.85;;;;;;;12.33;100.00;101577.09;5010791;28;20017;-74
2023/06/14 03:26:17;;;;;;;13.20;5.97;;;;;;;12.39;100.00;101584.53;5013303;28;20687;-74
2023/06/14 03:28:45;;;;;;;12.00;6.10;;;;;;;12.36;100.00;101587.50;4993955;28;20112;-74
2023/06/14 03:31:15;;;;;;;12.80;6.78;;;;;;;12.39;100.00;101587.22;5013307;28;20025;-74
2023/06/14 03:33:40;;;;;;;15.32;6.53;;;;;;;12.38;100.00;101585.50;5021072;28;20444;-74
2023/06/14 03:36:09;;;;;;;12.50;6.90;;;;;;;12.40;100.00;101586.19;5032581;28;20036;-74
2023/06/14 03:38:35;;;;;;;15.27;6.25;;;;;;;12.42;100.00;101593.09;5033058;28;20112;-74
2023/06/14 03:41:02;;;;;;;16.48;6.90;;;;;;;12.41;100.00;101586.06;5026121;28;20114;-74
2023/06/14 03:43:27;;;;;;;16.07;6.20;;;;;;;12.45;100.00;101586.56;5012961;28;20115;-74
2023/06/14 03:45:53;;;;;;;13.13;5.93;;;;;;;12.46;100.00;101588.28;5030410;28;20029;-74
2023/06/14 03:48:20;;;;;;;14.85;6.75;;;;;;;12.48;100.00;101594.31;5025340;28;20029;-73
2023/06/14 03:50:45;;;;;;;14.07;7.33;;;;;;;12.51;100.00;101580.63;5012939;28;20061;-74
2023/06/14 03:53:11;;;;;;;11.93;6.60;;;;;;;12.63;100.00;101589.25;5012926;28;20021;-74
2023/06/14 03:55:41;;;;;;;11.05;6.88;;;;;;;12.67;100.00;101580.75;5008987;28;20059;-74
2023/06/14 03:58:06;;;;;;;14.02;6.43;;;;;;;12.74;100.00;101585.50;5015936;28;20029;-74
2023/06/14 04:00:32;;;;;;;10.67;5.93;;;;;;;12.83;100.00;101576.47;5032802;28;20024;-74
2023/06/14 04:02:57;;;;;;;18.92;5.65;;;;;;;12.82;100.00;101572.97;5000077;28;20476;-74
2023/06/14 04:05:26;;;;;;;14.87;6.40;;;;;;;12.97;100.00;101575.06;4997200;28;20032;-74
2023/06/14 04:07:55;;;;;;;12.75;5.80;;;;;;;13.07;100.00;101582.00;4992563;28;20021;-75
2023/06/14 04:10:21;;;;;;;17.45;6.68;;;;;;;13.18;100.00;101572.00;4994264;28;20026;-74
2023/06/14 04:12:46;;;;;;;17.15;6.80;;;;;;;13.20;100.00;101570.00;5030132;28;20030;-75
2023/06/14 04:15:12;;;;;;;8.73;6.13;;;;;;;13.33;100.00;101570.44;5008236;28;20469;-75
2023/06/14 04:17:38;;;;;;;10.68;5.05;;;;;;;13.47;100.00;101566.31;5032396;28;20056;-75
2023/06/14 04:20:06;;;;;;;9.93;4.93;;;;;;;13.57;100.00;101552.78;5032233;28;20021;-74
2023/06/14 04:22:33;;;;;;;10.73;5.13;;;;;;;13.66;100.00;101551.81;5032421;28;20478;-74
2023/06/14 04:24:59;;;;;;;9.38;5.00;;;;;;;13.81;100.00;101549.31;4999665;28;20069;-75
2023/06/14 04:27:30;;;;;;;11.55;5.15;;;;;;;13.90;100.00;101554.53;5012503;28;20029;-74
2023/06/14 04:29:59;;;;;;;7.60;4.45;;;;;;;14.03;100.00;101545.19;5012240;28;20036;-75
2023/06/14 04:32:38;;;;;;;11.18;4.88;;;;;;;14.19;100.00;101550.56;5012391;28;20013;-75
2023/06/14 04:35:05;;;;;;;12.10;4.70;;;;;;;14.30;100.00;101542.16;5012164;28;20042;-75
2023/06/14 04:37:31;;;;;;;13.93;4.85;;;;;;;14.32;100.00;101532.09;4992502;28;20026;-75
2023/06/14 04:39:57;;;;;;;10.93;4.20;;;;;;;14.46;100.00;101527.06;5012586;28;20099;-74
2023/06/14 04:42:25;;;;;;;6.45;4.65;;;;;;;14.57;100.00;101532.97;5025827;28;20280;-74
2023/06/14 04:44:55;;;;;;;8.90;3.67;;;;;;;14.78;100.00;101521.66;5011739;28;20033;-74
2023/06/14 04:47:20;;;;;;;7.78;5.15;;;;;;;14.89;100.00;101519.63;4996708;28;20029;-74
2023/06/14 04:49:46;;;;;;;11.27;4.25;;;;;;;15.03;100.00;101512.69;5008998;28;20547;-74
2023/06/14 04:52:12;;;;;;;10.63;4.33;;;;;;;15.17;100.00;101506.59;5011620;28;20033;-74
2023/06/14 04:54:43;;;;;;;11.10;4.07;;;;;;;15.23;100.00;101492.44;5019985;28;20017;-74
2023/06/14 04:57:13;;;;;;;11.02;4.28;;;;;;;15.36;100.00;101487.34;5004183;28;20025;-74
2023/06/14 04:59:40;;;;;;;11.48;3.85;;;;;;;15.51;100.00;101475.84;5011908;28;20103;-75
2023/06/14 05:02:06;;;;;;;8.82;3.67;;;;;;;15.61;100.00;101485.34;4995307;28;20021;-75
2023/06/14 05:04:33;;;;;;;7.97;3.78;;;;;;;15.85;100.00;101480.88;5008482;28;20033;-75
2023/06/14 05:06:58;;;;;;;3.83;2.90;;;;;;;15.91;100.00;101445.13;5012668;28;20048;-74
2023/06/14 05:09:24;;;;;;;8.70;3.72;;;;;;;16.09;100.00;101442.13;5031500;28;20021;-74
2023/06/14 05:11:50;;;;;;;14.90;4.20;;;;;;;16.28;100.00;101443.47;5031380;28;20082;-74
2023/06/14 05:14:16;;;;;;;7.53;3.60;;;;;;;16.41;100.00;101424.81;5012375;28;20036;-75
2023/06/14 05:16:42;;;;;;;9.68;3.58;;;;;;;16.33;100.00;101376.38;5011520;28;20544;-75
2023/06/14 05:19:08;;;;;;;5.47;3.35;;;;;;;16.56;100.00;101388.94;5011466;28;20025;-76
2023/06/14 05:21:34;;;;;;;12.10;3.88;;;;;;;16.58;100.00;101354.56;4995212;28;20417;-75
2023/06/14 05:24:00;;;;;;;8.63;3.50;;;;;;;16.76;100.00;101359.53;5028796;28;20546;-75
2023/06/14 05:26:28;;;;;;;6.78;3.80;;;;;;;16.56;100.00;101325.09;4995135;28;20112;-76
2023/06/14 05:28:57;;;;;;;9.75;3.72;;;;;;;16.88;100.00;101318.47;5037072;28;20025;-76
2023/06/14 05:31:24;;;;;;;10.85;3.55;;;;;;;17.39;100.00;101331.00;5029105;28;20053;-75
2023/06/14 05:33:50;;;;;;;7.97;3.47;;;;;;;17.61;100.00;101264.34;4994495;28;20037;-75
2023/06/14 05:36:15;;;;;;;7.07;3.65;;;;;;;18.24;100.00;101261.66;4993455;28;20025;-76
2023/06/14 05:38:41;;;;;;;8.20;3.50;;;;;;;18.76;100.00;101200.69;5011150;28;20033;-75
2023/06/14 05:41:06;;;;;;;6.97;3.10;;;;;;;19.76;100.00;101051.69;5023431;28;20275;-75
2023/06/14 05:43:32;;;;;;;6.07;2.73;;;;;;;20.66;100.00;100915.91;5002808;28;20076;-75
2023/06/14 05:45:57;;;;;;;8.63;3.77;;;;;;;20.26;100.00;100725.69;5028312;28;20029;-76
2023/06/14 05:48:22;;;;;;;5.40;2.73;;;;;;;20.58;100.00;100696.50;5028283;28;20029;-76
2023/06/14 05:50:48;;;;;;;7.20;3.30;;;;;;;20.35;100.00;100639.44;5010960;28;20025;-76
2023/06/14 05:53:13;;;;;;;6.70;3.03;;;;;;;21.17;100.00;100807.16;5028003;28;20112;-76
2023/06/14 05:55:38;;;;;;;11.10;3.10;;;;;;;21.53;100.00;100632.34;5006860;28;20040;-75
2023/06/14 05:58:04;;;;;;;7.03;2.93;;;;;;;22.22;100.00;100515.56;4998111;28;20061;-76
2023/06/14 06:00:29;;;;;;;8.07;2.73;;;;;;;21.34;100.00;100490.44;5019995;28;20018;-75
2023/06/14 06:02:57;;;;;;;11.93;3.23;;;;;;;22.39;98.50;100559.06;5002455;28;20718;-76
2023/06/14 06:05:23;;;;;;;8.88;2.70;;;;;;;23.34;92.94;100516.47;5023327;28;20018;-77
2023/06/14 06:07:48;;;;;;;5.73;2.80;;;;;;;23.51;90.26;100472.81;5019133;28;20095;-76
2023/06/14 06:10:16;;;;;;;10.80;3.67;;;;;;;22.42;88.30;100283.06;5011920;28;20390;-76
2023/06/14 06:12:42;;;;;;;14.97;3.80;;;;;;;22.91;89.11;100549.84;5003430;28;20101;-76
2023/06/14 06:15:11;;;;;;;9.80;2.83;;;;;;;23.32;86.36;100496.81;4995608;28;20025;-76
2023/06/14 06:17:37;;;;;;;12.10;2.90;;;;;;;23.73;84.38;100537.34;5021010;28;20037;-76
2023/06/14 06:20:05;;;;;;;10.48;3.50;;;;;;;24.10;80.38;100364.91;5023824;28;20393;-76
2023/06/14 06:22:30;;;;;;;6.22;2.28;;;;;;;24.60;79.98;100527.34;5001452;28;20493;-76
2023/06/14 06:24:56;;;;;;;9.00;2.77;;;;;;;24.11;77.59;100361.88;5024032;28;20010;-76
2023/06/14 06:27:21;;;;;;;8.20;2.97;;;;;;;24.74;76.93;100503.97;4991640;28;20689;-76
2023/06/14 06:29:48;;;;;;;7.95;3.10;;;;;;;25.17;74.44;100450.16;5010885;28;20109;-76
2023/06/14 06:32:14;;;;;;;8.18;2.95;;;;;;;25.55;72.57;100426.25;5011757;28;20043;-76
2023/06/14 06:34:39;;;;;;;5.75;2.80;;;;;;;25.50;71.12;100387.97;4988472;28;20344;-76
2023/06/14 06:37:06;;;;;;;6.72;2.80;;;;;;;24.31;72.32;100365.84;5023756;28;20052;-75
2023/06/14 06:39:31;;;;;;;;;;;;;;;24.84;71.17;100403.03;5020329;28;20026;-76
2023/06/14 06:41:56;;;;;;;13.27;3.97;;;;;;;22.42;72.98;100073.66;4988549;28;19913;-76
2023/06/14 06:44:31;;;;;;;8.05;3.15;;;;;;;23.15;74.65;100505.03;5007671;28;20018;-76
2023/06/14 06:46:57;;;;;;;8.30;3.10;;;;;;;23.67;73.53;100532.91;5004662;28;20105;-76
2023/06/14 06:49:26;;;;;;;7.43;2.90;;;;;;;24.77;71.41;100585.34;5006860;28;20540;-75
2023/06/14 06:52:02;;;;;;;7.13;3.22;;;;;;;24.88;69.87;100460.63;5020997;28;20034;-76
2023/06/14 06:54:27;;;;;;;7.13;2.78;;;;;;;24.49;69.34;100364.63;5022605;28;20036;-76
2023/06/14 06:56:53;;;;;;;6.38;3.10;;;;;;;23.64;69.29;100139.13;5021546;28;20078;-76
2023/06/14 06:59:18;;;;;;;6.72;2.70;;;;;;;24.08;72.03;100607.03;5020097;28;20124;-76
2023/06/14 07:01:43;;;;;;;4.63;2.57;;;;;;;24.39;68.91;100412.53;5025035;28;20613;-76
2023/06/14 07:04:09;;;;;;;5.30;2.53;;;;;;;24.30;68.66;100386.00;5023247;28;20279;-76
2023/06/14 07:06:34;;;;;;;5.97;2.80;;;;;;;24.59;68.08;100432.91;5005052;28;20285;-76
2023/06/14 07:09:01;;;;;;;5.07;2.93;;;;;;;24.46;68.32;100434.16;5012515;28;20272;-76
2023/06/14 07:11:27;;;;;;;5.53;2.38;;;;;;;25.30;67.84;100622.88;4999223;28;20072;-76
2023/06/14 07:13:52;;;;;;;4.50;2.38;;;;;;;25.31;66.88;100550.75;5010061;28;20041;-76
2023/06/14 07:16:18;;;;;;;6.03;2.58;;;;;;;25.21;64.65;100298.28;5036687;28;20025;-76
2023/06/14 07:18:43;;;;;;;4.40;2.63;;;;;;;25.63;63.68;100340.97;5025978;28;20030;-75
2023/06/14 07:21:09;;;;;;;6.85;3.13;;;;;;;25.64;63.03;100315.28;5032182;28;20027;-76
2023/06/14 07:23:35;;;;;;;7.35;2.92;;;;;;;25.28;64.94;100443.63;5008115;28;20071;-76
2023/06/14 07:26:00;;;;;;;4.28;2.80;;;;;;;25.23;64.43;100372.59;5012431;28;20057;-76
2023/06/14 07:28:26;;;;;;;6.65;2.60;;;;;;;25.05;65.03;100441.31;5003838;28;20030;-76
2023/06/14 07:30:51;;;;;;;5.57;2.40;;;;;;;25.32;64.32;100432.19;5007291;28;20041;-76
2023/06/14 07:33:16;;;;;;;10.03;3.47;;;;;;;24.69;65.40;100394.75;5017245;28;20302;-76
2023/06/14 07:35:42;;;;;;;4.60;2.60;;;;;;;24.47;62.32;99962.97;5006738;28;20268;-76
2023/06/14 07:38:07;;;;;;;5.65;2.85;;;;;;;24.49;65.83;100476.47;5013976;28;20041;-76
2023/06/14 07:40:33;;;;;;;9.90;2.70;;;;;;;25.05;66.23;100655.19;5032393;28;20100;-75
2023/06/14 07:42:58;;;;;;;8.20;2.90;;;;;;;25.27;64.74;100564.94;5018039;28;20284;-76
2023/06/14 07:45:23;;;;;;;7.38;3.25;;;;;;;25.54;64.75;100607.72;5015014;28;20674;-76
2023/06/14 07:47:49;;;;;;;7.80;2.87;;;;;;;25.48;65.39;100638.84;5015168;28;20475;-76
2023/06/14 07:50:15;;;;;;;6.60;3.13;;;;;;;25.85;62.50;100455.56;5032645;28;20030;-76
2023/06/14 07:52:40;;;;;;;12.57;3.35;;;;;;;26.07;63.11;100540.13;5015149;28;20406;-76
2023/06/14 07:55:06;;;;;;;6.37;2.50;;;;;;;25.45;63.27;100418.84;4994624;28;20027;-76
2023/06/14 07:57:32;;;;;;;4.32;2.95;;;;;;;25.28;63.70;100418.22;5009908;28;20276;-75
2023/06/14 07:59:57;;;;;;;7.55;3.28;;;;;;;25.21;63.62;100412.19;5015596;28;20028;-76
2023/06/14 08:02:23;;;;;;;9.38;2.63;;;;;;;25.10;63.49;100340.31;5013531;28;20124;-76
2023/06/14 08:04:48;;;;;;;5.55;3.00;;;;;;;25.47;63.24;100459.56;5021153;28;20025;-76
2023/06/14 08:07:14;;;;;;;5.57;2.97;;;;;;;25.26;63.47;100385.75;5032393;28;20129;-76
2023/06/14 08:09:40;;;;;;;5.85;3.08;;;;;;;25.12;64.17;100502.00;5007467;28;20018;-76
2023/06/14 08:12:12;;;;;;;7.65;2.85;;;;;;;25.61;63.46;100580.94;5016438;28;20037;-75
2023/06/14 08:14:39;;;;;;;7.22;2.80;;;;;;;25.76;62.70;100470.03;4997580;28;20037;-76
2023/06/14 08:17:05;;;;;;;7.07;2.80;;;;;;;25.67;62.82;100486.13;5030991;28;20039;-76
2023/06/14 08:19:30;;;;;;;7.97;3.10;;;;;;;25.67;61.01;100234.66;5012013;28;20506;-76
2023/06/14 08:21:56;;;;;;;5.75;2.65;;;;;;;25.05;61.57;100179.16;5015737;28;20044;-76
2023/06/14 08:24:26;;;;;;;4.82;2.63;;;;;;;25.32;63.25;100500.50;5026738;28;20246;-75
2023/06/14 08:26:56;;;;;;;6.32;2.50;;;;;;;25.80;61.21;100435.56;5005095;28;20034;-76
2023/06/14 08:29:21;;;;;;;8.40;2.78;;;;;;;25.85;60.82;100335.25;5008210;28;20486;-76
2023/06/14 08:31:47;;;;;;;10.63;3.40;;;;;;;25.98;60.31;100346.75;5028152;28;20017;-76
2023/06/14 08:34:12;;;;;;;4.97;2.28;;;;;;;25.83;58.47;100061.28;5030296;28;20032;-76
2023/06/14 08:36:38;;;;;;;7.65;2.90;;;;;;;25.55;60.12;100204.06;5018612;28;20029;-75
2023/06/14 08:39:03;;;;;;;6.65;2.92;;;;;;;25.18;60.52;100186.84;5025211;28;20029;-76
2023/06/14 08:41:29;;;;;;;6.57;2.88;;;;;;;25.79;60.50;100354.66;4996076;28;20028;-76
2023/06/14 08:43:58;;;;;;;5.32;2.88;;;;;;;24.63;60.84;100014.56;5012260;28;20483;-74
2023/06/14 08:46:27;;;;;;;4.45;2.90;;;;;;;24.50;61.94;100150.72;5023889;28;20026;-76
2023/06/14 08:48:56;;;;;;;6.60;2.55;;;;;;;24.63;62.08;100282.03;5026057;28;20021;-76
2023/06/14 08:51:22;;;;;;;7.95;2.65;;;;;;;24.11;62.83;100198.28;5011294;28;20032;-75
2023/06/14 08:53:52;;;;;;;;;;;;;;;23.43;64.33;100202.75;5027318;28;20173;-76
2023/06/14 08:56:18;;;;;;;4.72;3.05;;;;;;;23.36;65.38;100312.72;5013523;28;19957;-76
2023/06/14 08:58:45;;;;;;;6.90;2.92;;;;;;;23.56;66.48;100515.63;5024971;28;20436;-76
2023/06/14 09:01:16;;;;;;;5.10;2.38;;;;;;;23.29;66.26;100387.53;5005223;28;20498;-75
2023/06/14 09:03:42;;;;;;;6.03;2.60;;;;;;;22.86;63.54;99926.53;5009555;28;20817;-76
2023/06/14 09:06:13;;;;;;;4.60;2.47;;;;;;;23.70;62.07;100093.66;5029512;28;20017;-76
2023/06/14 09:08:43;;;;;;;6.32;2.65;;;;;;;24.32;59.26;99898.31;5021443;28;20025;-76
2023/06/14 09:11:12;;;;;;;8.00;2.90;;;;;;;23.82;58.02;99584.66;5025593;28;20029;-75
2023/06/14 09:13:37;;;;;;;7.53;2.95;;;;;;;23.39;59.03;99671.34;5011566;28;20049;-76
2023/06/14 09:16:03;;;;;;;8.40;2.42;;;;;;;22.93;59.84;99616.88;5029205;28;20057;-75
2023/06/14 09:18:47;;;;;;;6.78;3.15;;;;;;;23.15;60.61;99876.06;5011804;28;20502;-75
2023/06/14 09:21:14;;;;;;;9.43;2.50;;;;;;;22.65;60.40;99676.13;5029527;28;20029;-76
2023/06/14 09:23:41;;;;;;;7.55;3.05;;;;;;;22.83;61.10;99864.47;5011438;28;20020;-76
2023/06/14 09:26:08;;;;;;;3.65;2.35;;;;;;;24.17;60.16;100185.50;5040558;28;20032;-76
2023/06/14 09:28:33;;;;;;;8.57;2.78;;;;;;;23.91;58.87;99857.47;5031260;28;20560;-75
2023/06/14 09:31:01;;;;;;;8.53;3.17;;;;;;;23.64;59.59;99890.38;5034436;28;20034;-75
2023/06/14 09:33:27;;;;;;;4.00;2.40;;;;;;;23.56;60.08;99929.84;5011268;28;20037;-76
2023/06/14 09:35:54;;;;;;;3.92;2.60;;;;;;;23.42;60.45;99964.94;5040919;28;20029;-76
2023/06/14 09:38:20;;;;;;;4.95;2.97;;;;;;;23.36;60.62;99974.19;5020367;28;20021;-76
2023/06/14 09:40:45;;;;;;;8.57;2.85;;;;;;;23.67;60.84;100124.16;5048813;28;20039;-76
2023/06/14 09:43:11;;;;;;;4.57;2.72;;;;;;;23.67;60.32;100040.53;5029369;28;20103;-76
2023/06/14 09:45:39;;;;;;;8.57;2.70;;;;;;;23.80;60.50;100156.41;5010989;28;20108;-76
2023/06/14 09:48:06;;;;;;;3.85;2.33;;;;;;;23.48;60.58;100021.06;5010776;28;20256;-75
2023/06/14 09:50:32;;;;;;;6.95;3.17;;;;;;;23.07;61.02;99960.97;5011077;28;20060;-75
2023/06/14 09:53:05;;;;;;;3.70;2.70;;;;;;;22.77;61.29;99912.59;5028370;28;20029;-74
2023/06/14 09:55:35;;;;;;;9.27;2.88;;;;;;;22.97;61.02;99975.31;5005690;28;20037;-75
2023/06/14 09:58:05;;;;;;;5.68;3.22;;;;;;;22.90;61.43;99965.75;5010529;28;20037;-75
2023/06/14 10:00:33;;;;;;;6.30;2.72;;;;;;;22.92;60.92;99979.91;5013296;28;20534;-75
2023/06/14 10:03:06;;;;;;;5.18;2.70;;;;;;;22.66;61.28;99906.28;5010556;28;20096;-76
2023/06/14 10:05:35;;;;;;;6.55;2.65;;;;;;;22.71;60.94;99903.63;5008983;28;20604;-76
2023/06/14 10:08:07;;;;;;;4.85;2.63;;;;;;;22.93;60.38;99932.56;4998375;28;20022;-75
2023/06/14 10:10:33;;;;;;;3.47;2.40;;;;;;;22.94;60.48;99912.41;5028438;28;20033;-75
2023/06/14 10:12:58;;;;;;;5.63;2.80;;;;;;;22.80;59.97;99786.91;5028183;28;20088;-75
2023/06/14 10:15:31;;;;;;;5.47;2.47;;;;;;;23.97;58.53;100034.34;5025682;28;20032;-75
2023/06/14 10:18:06;;;;;;;5.55;3.08;;;;;;;24.27;58.41;100086.53;5013629;28;20402;-75
2023/06/14 10:20:59;;;;;;;6.20;2.47;;;;;;;25.75;55.88;100203.19;5006610;28;20603;-74
2023/06/14 10:23:27;;;;;;;8.43;2.92;;;;;;;26.47;54.05;100154.53;5004936;28;20545;-74
2023/06/14 10:25:57;;;;;;;7.20;2.67;;;;;;;26.85;52.05;99963.97;5038589;28;20025;-75
2023/06/14 10:28:24;;;;;;;4.05;3.00;;;;;;;27.36;50.53;99897.63;5028091;28;20059;-75
2023/06/14 10:31:03;;;;;;;6.03;2.80;;;;;;;28.06;49.26;99942.72;4995769;28;20079;-76
2023/06/14 10:33:29;;;;;;;7.47;2.50;;;;;;;26.42;49.60;99377.44;5023985;28;20060;-75
2023/06/14 10:36:27;;;;;;;7.93;2.78;;;;;;;25.01;51.45;99422.56;5047766;28;20040;-76
2023/06/14 10:39:06;;;;;;;9.75;3.10;;;;;;;25.07;51.79;99464.28;5017755;28;20116;-75
2023/06/14 10:41:35;;;;;;;8.75;3.00;;;;;;;24.55;52.13;99363.03;5033378;28;20028;-75
2023/06/14 10:44:10;;;;;;;6.22;2.65;;;;;;;23.95;53.42;99409.63;5047389;28;20131;-76
2023/06/14 10:46:36;;;;;;;4.07;2.67;;;;;;;23.73;53.52;99379.19;5051825;28;20040;-75
2023/06/14 10:49:03;;;;;;;6.53;2.87;;;;;;;23.46;54.47;99424.03;5027096;28;20025;-76
2023/06/14 10:51:29;;;;;;;4.63;3.08;;;;;;;23.85;54.83;99638.59;5031996;28;20037;-74
2023/06/14 10:53:58;;;;;;;5.93;2.58;;;;;;;25.19;52.70;99827.97;5001512;28;20029;-76
2023/06/14 10:56:30;;;;;;;5.72;2.78;;;;;;;24.60;52.33;99485.75;5013827;28;20116;-75
2023/06/14 10:58:59;;;;;;;10.50;2.90;;;;;;;24.59;52.03;99497.78;4999712;28;20527;-76
2023/06/14 11:01:38;;;;;;;7.95;3.20;;;;;;;23.82;53.23;99393.06;5013576;28;20013;-74
2023/06/14 11:04:10;;;;;;;7.75;2.95;;;;;;;23.95;53.24;99477.75;5015956;28;20116;-76
2023/06/14 11:06:48;;;;;;;7.50;2.42;;;;;;;24.74;51.72;99488.63;5021286;28;20033;-74
2023/06/14 11:09:36;;;;;;;6.50;3.03;;;;;;;24.16;51.57;99278.56;5020479;28;20155;-77
2023/06/14 11:12:02;;;;;;;7.38;2.40;;;;;;;25.38;51.18;99690.69;5028502;28;20037;-77
2023/06/14 11:14:30;;;;;;;6.53;2.70;;;;;;;24.39;51.08;99340.50;5007768;28;20083;-76
2023/06/14 11:16:56;;;;;;;4.10;2.60;;;;;;;25.61;50.42;99659.88;5015141;28;20037;-77
2023/06/14 11:19:22;;;;;;;8.05;2.80;;;;;;;25.12;50.91;99518.03;4995545;28;20056;-78